Healy, Alaska
Current Conditions -  °F | °C
As of 7:36 AM on Wednesday 22 Oct 2014 (Local Time) from PAIN Reporting Station
Overcast Overcast  
Wind Chill: 21°   Ceiling: 600
Heat Index: 21°   Visibility: 5mi
Dew Point: 21°   Wind: 0mph
Humidity: 100%   Direction: NA
Pressure: 29.46"   Gusts: NA
Location:  63.85°N, 148.98°W
Report Text: PAIN 221536Z AUTO 00000KT 5SM OVC006 M06/M06 A2946 RMK AO1
Loading
Personal Weather Stations






























Interactive Weather Map
Tropical Storm Tracking
New forecast layout! Learn more

10-Day Weather Forecast

Advertisements
Track Severe Weather on mobile